createdAt,value
2022-09-17T00:00:22.073Z,10.77
2022-09-17T00:01:25.227Z,10.72
2022-09-17T00:02:27.404Z,10.79
2022-09-17T00:03:29.518Z,10.75
2022-09-17T00:04:31.236Z,10.78
2022-09-17T00:05:32.687Z,10.76
2022-09-17T00:06:35.632Z,10.62
2022-09-17T00:07:37.393Z,10.66
2022-09-17T00:08:41.092Z,10.65
2022-09-17T00:09:42.840Z,10.63
2022-09-17T00:10:44.855Z,10.59
2022-09-17T00:11:46.618Z,10.56
2022-09-17T00:12:48.156Z,10.52
2022-09-17T00:13:51.553Z,10.53
2022-09-17T00:14:53.276Z,10.54
2022-09-17T00:15:55.007Z,10.53
2022-09-17T00:17:01.203Z,10.50
2022-09-17T00:18:03.419Z,10.47
2022-09-17T00:19:06.473Z,10.44
2022-09-17T00:20:12.133Z,10.41
2022-09-17T00:21:18.417Z,10.37
2022-09-17T00:22:19.898Z,10.36
2022-09-17T00:23:21.670Z,10.35
2022-09-17T00:24:23.259Z,10.35
2022-09-17T00:25:24.971Z,10.32
2022-09-17T00:26:27.284Z,10.32
2022-09-17T00:27:28.843Z,10.41
2022-09-17T00:28:30.469Z,10.43
2022-09-17T00:29:32.031Z,10.39
2022-09-17T00:30:33.541Z,10.32
2022-09-17T00:31:35.679Z,10.30
2022-09-17T00:32:37.328Z,10.35
2022-09-17T00:33:38.952Z,10.35
2022-09-17T00:34:40.777Z,10.31
2022-09-17T00:35:43.190Z,10.23
2022-09-17T00:36:44.811Z,10.35
2022-09-17T00:37:46.267Z,10.36
2022-09-17T00:38:52.809Z,10.37
2022-09-17T00:39:54.428Z,10.37
2022-09-17T00:40:55.946Z,10.41
2022-09-17T00:41:57.466Z,10.40
2022-09-17T00:42:59.100Z,10.40
2022-09-17T00:44:22.029Z,10.43
2022-09-17T00:45:24.288Z,10.38
2022-09-17T00:46:38.823Z,10.26
2022-09-17T00:47:47.743Z,10.19
2022-09-17T00:48:51.038Z,10.27
2022-09-17T00:49:57.906Z,10.24
2022-09-17T00:51:01.639Z,10.27
2022-09-17T00:52:10.688Z,10.27
2022-09-17T00:53:15.875Z,10.26
2022-09-17T00:54:17.937Z,10.27
2022-09-17T00:55:33.183Z,10.31
2022-09-17T00:56:37.132Z,10.37
2022-09-17T00:57:41.308Z,10.41
2022-09-17T00:58:43.273Z,10.43
2022-09-17T00:59:45.314Z,10.34
2022-09-17T01:00:47.225Z,10.47
2022-09-17T01:01:49.208Z,10.44
2022-09-17T01:02:53.480Z,10.40
2022-09-17T01:03:54.950Z,10.47
2022-09-17T01:04:56.579Z,10.43
2022-09-17T01:06:07.080Z,10.35
2022-09-17T01:07:59.379Z,10.35
2022-09-17T01:09:32.913Z,10.35
2022-09-17T01:10:40.239Z,10.36
2022-09-17T01:11:53.651Z,10.40
2022-09-17T01:13:14.258Z,10.36
2022-09-17T01:14:24.730Z,10.39
2022-09-17T01:15:45.102Z,10.42
2022-09-17T01:17:14.346Z,10.48
2022-09-17T01:18:23.896Z,10.48
2022-09-17T01:20:19.858Z,10.44
2022-09-17T01:21:30.510Z,10.45
2022-09-17T01:22:57.413Z,10.42
2022-09-17T01:24:17.462Z,10.40
2022-09-17T01:25:29.860Z,10.34
2022-09-17T01:26:46.643Z,10.31
2022-09-17T01:28:14.034Z,10.30
2022-09-17T01:29:43.788Z,10.25
2022-09-17T01:32:04.001Z,10.24
2022-09-17T01:33:28.702Z,10.20
2022-09-17T01:35:01.778Z,10.15
2022-09-17T01:36:09.498Z,10.17
2022-09-17T01:37:16.021Z,10.19
2022-09-17T01:38:49.425Z,10.20
2022-09-17T01:40:00.909Z,10.26
2022-09-17T01:41:08.934Z,10.29
2022-09-17T01:42:13.710Z,10.26
2022-09-17T01:43:26.783Z,10.22
2022-09-17T01:44:47.264Z,10.15
2022-09-17T01:45:52.913Z,10.12
2022-09-17T01:47:35.945Z,10.10
2022-09-17T01:48:44.373Z,10.09
2022-09-17T01:49:46.937Z,10.13
2022-09-17T01:51:12.729Z,10.14
2022-09-17T01:52:15.673Z,10.13
2022-09-17T01:53:18.995Z,10.11
2022-09-17T01:54:42.536Z,10.11
2022-09-17T01:55:46.680Z,10.12
2022-09-17T01:57:02.045Z,10.15
2022-09-17T01:58:11.321Z,10.22
2022-09-17T01:59:20.173Z,10.25
2022-09-17T02:00:22.438Z,10.29
2022-09-17T02:01:25.728Z,10.30
2022-09-17T02:02:39.994Z,10.23
2022-09-17T02:03:47.602Z,10.29
2022-09-17T02:04:58.937Z,10.27
2022-09-17T02:06:20.967Z,10.28
2022-09-17T02:07:23.441Z,10.22
2022-09-17T02:08:29.009Z,10.22
2022-09-17T02:09:36.870Z,10.21
2022-09-17T02:10:44.631Z,10.25
2022-09-17T02:11:52.157Z,10.30
2022-09-17T02:12:59.017Z,10.31
2022-09-17T02:14:05.867Z,10.33
2022-09-17T02:15:18.121Z,10.24
2022-09-17T02:16:25.086Z,10.41
2022-09-17T02:17:34.623Z,10.42
2022-09-17T02:18:56.160Z,10.41
2022-09-17T02:19:59.545Z,10.37
2022-09-17T02:21:15.620Z,10.32
2022-09-17T02:22:30.270Z,10.29
2022-09-17T02:23:36.697Z,10.25
2022-09-17T02:24:46.644Z,10.23
2022-09-17T02:25:57.980Z,10.20
2022-09-17T02:27:15.190Z,10.18
2022-09-17T02:28:27.965Z,10.04
2022-09-17T02:29:36.749Z,10.08
2022-09-17T02:30:38.728Z,10.05
2022-09-17T02:31:41.904Z,10.06
2022-09-17T02:32:44.179Z,10.04
2022-09-17T02:33:50.205Z,10.02
2022-09-17T02:34:51.962Z,9.99
2022-09-17T02:35:53.691Z,10.04
2022-09-17T02:36:58.432Z,10.07
2022-09-17T02:38:00.817Z,10.04
2022-09-17T02:39:04.318Z,10.10
2022-09-17T02:40:07.129Z,10.04
2022-09-17T02:41:26.085Z,10.07
2022-09-17T02:43:05.379Z,10.07
2022-09-17T02:44:18.430Z,10.00
2022-09-17T02:45:35.806Z,9.93
2022-09-17T02:46:46.590Z,9.87
2022-09-17T02:48:17.713Z,9.86
2022-09-17T02:49:27.219Z,9.79
2022-09-17T02:50:54.424Z,9.78
2022-09-17T02:52:17.654Z,9.79
2022-09-17T02:53:41.635Z,9.70
2022-09-17T02:54:52.559Z,9.70
2022-09-17T02:56:18.594Z,9.68
2022-09-17T02:57:38.958Z,9.64
2022-09-17T02:58:47.663Z,9.66
2022-09-17T03:00:05.140Z,9.70
2022-09-17T03:01:17.748Z,9.70
2022-09-17T03:02:44.127Z,9.68
2022-09-17T03:03:50.304Z,9.67
2022-09-17T03:04:53.309Z,9.66
2022-09-17T03:05:55.711Z,9.66
2022-09-17T03:06:59.454Z,9.66
2022-09-17T03:08:01.203Z,9.65
2022-09-17T03:09:03.335Z,9.67
2022-09-17T03:10:05.968Z,9.67
2022-09-17T03:11:09.275Z,9.67
2022-09-17T03:12:12.188Z,9.73
2022-09-17T03:13:13.917Z,9.81
2022-09-17T03:14:15.469Z,9.83
2022-09-17T03:15:16.992Z,9.88
2022-09-17T03:16:18.539Z,9.90
2022-09-17T03:17:20.032Z,9.96
2022-09-17T03:18:21.505Z,9.97
2022-09-17T03:19:23.517Z,9.98
2022-09-17T03:20:25.071Z,9.99
2022-09-17T03:21:26.640Z,10.02
2022-09-17T03:22:28.442Z,10.06
2022-09-17T03:23:29.986Z,10.07
2022-09-17T03:24:31.510Z,10.09
2022-09-17T03:25:33.040Z,10.11
2022-09-17T03:26:34.606Z,10.13
2022-09-17T03:27:36.121Z,10.15
2022-09-17T03:28:37.581Z,10.16
2022-09-17T03:29:39.098Z,10.15
2022-09-17T03:30:40.601Z,10.22
2022-09-17T03:31:42.548Z,10.18
2022-09-17T03:32:44.250Z,10.16
2022-09-17T03:33:45.973Z,10.24
2022-09-17T03:34:47.559Z,10.25
2022-09-17T03:35:49.139Z,10.29
2022-09-17T03:36:50.637Z,10.28
2022-09-17T03:37:52.401Z,10.30
2022-09-17T03:38:56.407Z,10.33
2022-09-17T03:39:57.994Z,10.31
2022-09-17T03:41:02.023Z,10.35
2022-09-17T03:42:03.726Z,10.40
2022-09-17T03:43:06.038Z,10.43
2022-09-17T03:44:07.619Z,10.40
2022-09-17T03:45:09.621Z,10.51
2022-09-17T03:46:11.148Z,10.56
2022-09-17T03:47:12.760Z,10.57
2022-09-17T03:48:14.262Z,10.58
2022-09-17T03:49:15.773Z,10.59
2022-09-17T03:50:17.386Z,10.60
2022-09-17T03:51:18.955Z,10.61
2022-09-17T03:52:20.487Z,10.61
2022-09-17T03:53:21.942Z,10.61
2022-09-17T03:54:23.542Z,10.63
2022-09-17T03:55:25.140Z,10.66
2022-09-17T03:56:26.966Z,10.67
2022-09-17T03:57:28.449Z,10.69
2022-09-17T03:58:30.742Z,10.65
2022-09-17T03:59:32.343Z,10.44
2022-09-17T04:00:37.142Z,10.65
2022-09-17T04:01:39.671Z,10.65
2022-09-17T04:02:41.460Z,10.66
2022-09-17T04:03:43.288Z,10.72
2022-09-17T04:04:44.857Z,10.70
2022-09-17T04:05:46.502Z,10.68
2022-09-17T04:06:47.975Z,10.71
2022-09-17T04:07:49.824Z,10.70
2022-09-17T04:08:51.346Z,10.72
2022-09-17T04:09:52.861Z,10.73
2022-09-17T04:10:54.616Z,10.71
2022-09-17T04:11:56.102Z,10.71
2022-09-17T04:12:57.586Z,10.72
2022-09-17T04:13:59.139Z,10.70
2022-09-17T04:15:00.646Z,10.67
2022-09-17T04:16:02.971Z,10.62
2022-09-17T04:17:04.503Z,10.62
2022-09-17T04:18:06.391Z,10.62
2022-09-17T04:19:07.981Z,10.64
2022-09-17T04:20:09.883Z,10.64
2022-09-17T04:21:11.665Z,10.61
2022-09-17T04:22:13.194Z,10.69
2022-09-17T04:23:14.847Z,10.70
2022-09-17T04:24:16.498Z,10.71
2022-09-17T04:25:18.192Z,10.71
2022-09-17T04:26:19.707Z,10.70
2022-09-17T04:27:21.279Z,10.71
2022-09-17T04:28:22.779Z,10.71
2022-09-17T04:29:24.323Z,10.69
2022-09-17T04:30:25.831Z,10.70
2022-09-17T04:31:27.475Z,10.71
2022-09-17T04:32:29.057Z,10.70
2022-09-17T04:33:30.601Z,10.70
2022-09-17T04:34:33.060Z,10.70
2022-09-17T04:35:34.798Z,10.70
2022-09-17T04:36:36.339Z,10.65
2022-09-17T04:37:38.552Z,10.55
2022-09-17T04:38:40.045Z,10.61
2022-09-17T04:39:41.698Z,10.61
2022-09-17T04:40:43.266Z,10.57
2022-09-17T04:41:45.433Z,10.56
2022-09-17T04:42:47.149Z,10.59
2022-09-17T04:43:48.831Z,10.63
2022-09-17T04:44:50.412Z,10.62
2022-09-17T04:45:51.934Z,10.59
2022-09-17T04:46:53.479Z,10.57
2022-09-17T04:47:55.677Z,10.47
2022-09-17T04:48:57.598Z,10.45
2022-09-17T04:49:59.092Z,10.49
2022-09-17T04:51:00.740Z,10.45
2022-09-17T04:52:02.438Z,10.46
2022-09-17T04:53:03.999Z,10.49
2022-09-17T04:54:05.686Z,10.51
2022-09-17T04:55:07.752Z,10.57
2022-09-17T04:56:09.273Z,10.56
2022-09-17T04:57:10.778Z,10.59
2022-09-17T04:58:12.301Z,10.58
2022-09-17T04:59:13.839Z,10.62
2022-09-17T05:00:15.967Z,10.58
2022-09-17T05:01:18.858Z,10.60
2022-09-17T05:02:20.600Z,10.61
2022-09-17T05:03:22.228Z,10.61
2022-09-17T05:04:23.800Z,10.59
2022-09-17T05:05:25.472Z,10.59
2022-09-17T05:06:26.963Z,10.59
2022-09-17T05:07:28.510Z,10.49
2022-09-17T05:08:30.082Z,10.56
2022-09-17T05:09:31.730Z,10.57
2022-09-17T05:10:33.295Z,10.54
2022-09-17T05:11:35.126Z,10.49
2022-09-17T05:12:36.856Z,10.50
2022-09-17T05:13:38.535Z,10.51
2022-09-17T05:14:40.125Z,10.52
2022-09-17T05:15:42.274Z,10.57
2022-09-17T05:16:43.870Z,10.58
2022-09-17T05:17:45.882Z,10.55
2022-09-17T05:18:49.481Z,10.44
2022-09-17T05:19:51.756Z,10.50
2022-09-17T05:20:53.345Z,10.51
2022-09-17T05:21:54.856Z,10.56
2022-09-17T05:22:56.478Z,10.63
2022-09-17T05:23:58.270Z,10.66
2022-09-17T05:24:59.892Z,10.67
2022-09-17T05:26:01.676Z,10.71
2022-09-17T05:27:03.467Z,10.74
2022-09-17T05:28:05.019Z,10.77
2022-09-17T05:29:06.567Z,10.79
2022-09-17T05:30:09.989Z,10.80
2022-09-17T05:31:11.761Z,10.76
2022-09-17T05:32:13.282Z,10.78
2022-09-17T05:33:14.949Z,10.74
2022-09-17T05:34:16.498Z,10.65
2022-09-17T05:35:18.127Z,10.70
2022-09-17T05:36:19.781Z,10.72
2022-09-17T05:37:21.403Z,10.75
2022-09-17T05:38:22.964Z,10.76
2022-09-17T05:39:28.815Z,10.75
2022-09-17T05:40:32.723Z,10.72
2022-09-17T05:41:34.346Z,10.69
2022-09-17T05:42:36.063Z,10.68
2022-09-17T05:43:37.560Z,10.55
2022-09-17T05:44:39.246Z,10.45
2022-09-17T05:45:40.845Z,10.49
2022-09-17T05:46:42.365Z,10.54
2022-09-17T05:47:43.910Z,10.58
2022-09-17T05:48:45.443Z,10.58
2022-09-17T05:49:47.010Z,10.61
2022-09-17T05:50:48.567Z,10.62
2022-09-17T05:51:51.071Z,10.62
2022-09-17T05:52:53.216Z,10.64
2022-09-17T05:53:56.036Z,10.66
2022-09-17T05:54:57.587Z,10.59
2022-09-17T05:55:59.646Z,10.58
2022-09-17T05:57:01.772Z,10.52
2022-09-17T05:58:13.965Z,10.49
2022-09-17T05:59:15.794Z,10.43
2022-09-17T06:00:17.448Z,10.39
2022-09-17T06:01:18.995Z,10.40
2022-09-17T06:02:20.600Z,10.39
2022-09-17T06:03:25.152Z,10.24
2022-09-17T06:04:27.306Z,10.50
2022-09-17T06:05:30.362Z,10.59
2022-09-17T06:06:31.906Z,10.66
2022-09-17T06:07:36.690Z,10.56
2022-09-17T06:08:38.382Z,10.65
2022-09-17T06:09:41.014Z,10.70
2022-09-17T06:10:42.565Z,10.73
2022-09-17T06:11:44.859Z,10.75
2022-09-17T06:12:46.395Z,10.74
2022-09-17T06:13:48.061Z,10.75
2022-09-17T06:14:49.610Z,10.75
2022-09-17T06:15:52.839Z,10.73
2022-09-17T06:16:55.888Z,10.71
2022-09-17T06:17:57.487Z,10.71
2022-09-17T06:18:59.218Z,10.67
2022-09-17T06:20:01.348Z,10.67
2022-09-17T06:21:05.455Z,10.73
2022-09-17T06:22:06.946Z,10.75
2022-09-17T06:23:11.658Z,10.77
2022-09-17T06:24:16.938Z,10.76
2022-09-17T06:25:18.839Z,10.74
2022-09-17T06:26:20.385Z,10.84
2022-09-17T06:27:22.055Z,10.86
2022-09-17T06:28:24.834Z,10.87
2022-09-17T06:29:26.897Z,10.92
2022-09-17T06:30:28.648Z,10.94
2022-09-17T06:31:30.281Z,10.97
2022-09-17T06:32:32.568Z,10.91
2022-09-17T06:33:34.800Z,10.83
2022-09-17T06:34:36.387Z,10.87
2022-09-17T06:35:37.863Z,10.86
2022-09-17T06:36:39.852Z,10.83
2022-09-17T06:37:41.474Z,10.80
2022-09-17T06:38:43.093Z,10.80
2022-09-17T06:39:45.706Z,10.81
2022-09-17T06:40:51.641Z,10.80
2022-09-17T06:41:53.112Z,10.65
2022-09-17T06:42:59.222Z,10.37
2022-09-17T06:44:02.078Z,10.17
2022-09-17T06:45:08.539Z,9.99
2022-09-17T06:46:12.110Z,9.86
2022-09-17T06:47:13.791Z,9.78
2022-09-17T06:48:15.329Z,9.80
2022-09-17T06:49:17.852Z,9.74
2022-09-17T06:50:20.359Z,9.74
2022-09-17T06:51:22.748Z,9.70
2022-09-17T06:52:24.318Z,9.67
2022-09-17T06:53:25.906Z,9.71
2022-09-17T06:54:27.389Z,9.76
2022-09-17T06:55:29.124Z,9.70
2022-09-17T06:56:30.826Z,9.68
2022-09-17T06:57:32.316Z,9.61
2022-09-17T06:58:37.345Z,9.47
2022-09-17T06:59:38.940Z,9.49
2022-09-17T07:00:40.789Z,9.45
2022-09-17T07:01:42.848Z,9.45
2022-09-17T07:02:44.434Z,9.43
2022-09-17T07:03:46.087Z,9.47
2022-09-17T07:04:47.546Z,9.49
2022-09-17T07:05:49.137Z,9.49
2022-09-17T07:06:50.680Z,9.51
2022-09-17T07:07:52.826Z,9.50
2022-09-17T07:08:54.303Z,9.55
2022-09-17T07:09:55.784Z,9.61
2022-09-17T07:10:58.260Z,9.60
2022-09-17T07:11:59.840Z,9.69
2022-09-17T07:13:01.469Z,9.76
2022-09-17T07:14:04.438Z,9.82
2022-09-17T07:15:06.374Z,9.86
2022-09-17T07:16:08.199Z,9.73
2022-09-17T07:17:10.010Z,9.70
2022-09-17T07:18:11.990Z,9.63
2022-09-17T07:19:14.911Z,9.64
2022-09-17T07:20:16.670Z,9.70
2022-09-17T07:21:18.242Z,9.59
2022-09-17T07:22:19.781Z,9.62
2022-09-17T07:23:23.856Z,9.57
2022-09-17T07:24:28.394Z,9.64
2022-09-17T07:25:32.229Z,9.72
2022-09-17T07:26:36.275Z,9.77
2022-09-17T07:27:38.300Z,9.84
2022-09-17T07:28:41.134Z,9.97
2022-09-17T07:29:42.594Z,9.98
2022-09-17T07:30:44.136Z,9.97
2022-09-17T07:31:45.699Z,10.08
2022-09-17T07:32:47.377Z,10.19
2022-09-17T07:33:48.899Z,10.27
2022-09-17T07:34:50.644Z,10.27
2022-09-17T07:35:54.601Z,10.33
2022-09-17T07:36:56.290Z,10.44
2022-09-17T07:37:57.832Z,10.55
2022-09-17T07:38:59.525Z,10.54
2022-09-17T07:40:01.430Z,10.46
2022-09-17T07:41:06.024Z,10.54
2022-09-17T07:42:07.927Z,10.50
2022-09-17T07:43:09.980Z,10.47
2022-09-17T07:44:11.499Z,10.42
2022-09-17T07:45:12.994Z,10.29
2022-09-17T07:46:17.605Z,10.23
2022-09-17T07:47:19.992Z,10.36
2022-09-17T07:48:21.611Z,10.30
2022-09-17T07:49:23.684Z,10.29
2022-09-17T07:50:25.222Z,10.36
2022-09-17T07:51:30.375Z,10.30
2022-09-17T07:52:31.877Z,10.34
2022-09-17T07:53:33.351Z,10.40
2022-09-17T07:54:36.831Z,10.49
2022-09-17T07:55:38.389Z,10.53
2022-09-17T07:56:39.927Z,10.63
2022-09-17T07:57:41.419Z,10.75
2022-09-17T07:58:42.958Z,10.86
2022-09-17T07:59:44.502Z,10.87
2022-09-17T08:00:46.109Z,10.88
2022-09-17T08:01:48.311Z,10.96
2022-09-17T08:02:56.879Z,11.04
2022-09-17T08:03:58.550Z,11.03
2022-09-17T08:05:00.073Z,10.90
2022-09-17T08:06:05.451Z,10.89
2022-09-17T08:07:07.016Z,10.83
2022-09-17T08:08:08.546Z,10.89
2022-09-17T08:09:10.831Z,10.94
2022-09-17T08:10:12.405Z,10.88
2022-09-17T08:12:41.819Z,10.82
2022-09-17T08:13:43.594Z,10.81
2022-09-17T08:14:45.226Z,10.84
2022-09-17T08:15:46.723Z,10.92
2022-09-17T08:16:48.225Z,10.78
2022-09-17T08:17:51.147Z,10.84
2022-09-17T08:18:57.111Z,10.96
2022-09-17T08:19:58.807Z,11.06
2022-09-17T08:21:02.506Z,11.13
2022-09-17T08:22:04.069Z,11.17
2022-09-17T08:23:05.572Z,11.24
2022-09-17T08:24:07.222Z,11.24
2022-09-17T08:25:10.059Z,11.22
2022-09-17T08:26:14.097Z,10.99
2022-09-17T08:27:15.587Z,10.97
2022-09-17T08:28:17.142Z,10.99
2022-09-17T08:29:19.055Z,10.95
2022-09-17T08:30:20.789Z,10.93
2022-09-17T08:31:24.762Z,10.99
2022-09-17T08:32:26.581Z,10.99
2022-09-17T08:33:31.562Z,10.81
2022-09-17T08:34:33.237Z,10.82
2022-09-17T08:35:34.730Z,10.74
2022-09-17T08:36:36.912Z,10.82
2022-09-17T08:37:38.519Z,10.98
2022-09-17T08:38:40.647Z,11.12
2022-09-17T08:39:42.331Z,11.29
2022-09-17T08:40:56.065Z,11.45
2022-09-17T08:42:14.003Z,11.64
2022-09-17T08:43:19.303Z,11.72
2022-09-17T08:44:41.479Z,11.79
2022-09-17T08:45:43.249Z,11.80
2022-09-17T08:46:50.616Z,11.65
2022-09-17T08:47:55.861Z,11.71
2022-09-17T08:49:25.408Z,11.64
2022-09-17T08:50:31.232Z,11.72
2022-09-17T08:51:43.459Z,11.70
2022-09-17T08:53:06.508Z,11.83
2022-09-17T08:54:21.085Z,11.60
2022-09-17T08:55:31.414Z,11.57
2022-09-17T08:56:35.282Z,11.69
2022-09-17T08:57:53.344Z,11.78
2022-09-17T08:59:04.570Z,11.83
2022-09-17T09:00:22.591Z,12.07
2022-09-17T09:01:33.014Z,12.10
2022-09-17T09:03:02.522Z,12.21
2022-09-17T09:04:32.931Z,12.18
2022-09-17T09:05:48.570Z,12.10
2022-09-17T09:06:55.162Z,12.05
2022-09-17T09:08:04.396Z,12.16
2022-09-17T09:09:13.095Z,12.07
2022-09-17T09:10:17.819Z,12.19
2022-09-17T09:11:27.803Z,12.40
2022-09-17T09:12:33.964Z,12.47
2022-09-17T09:13:42.208Z,12.52
2022-09-17T09:14:59.466Z,12.54
2022-09-17T09:16:11.951Z,12.46
2022-09-17T09:17:18.178Z,12.43
2022-09-17T09:18:22.316Z,12.87
2022-09-17T09:19:27.058Z,12.98
2022-09-17T09:20:39.896Z,12.77
2022-09-17T09:21:57.568Z,12.85
2022-09-17T09:23:17.826Z,13.17
2022-09-17T09:24:24.082Z,13.07
2022-09-17T09:25:31.327Z,13.09
2022-09-17T09:26:47.643Z,12.99
2022-09-17T09:28:32.608Z,12.95
2022-09-17T09:30:08.490Z,12.86
2022-09-17T09:31:31.476Z,12.59
2022-09-17T09:32:57.799Z,12.61
2022-09-17T09:34:03.190Z,12.38
2022-09-17T09:35:18.165Z,12.64
2022-09-17T09:36:22.093Z,12.78
2022-09-17T09:37:27.957Z,12.79
2022-09-17T09:38:38.541Z,12.69
2022-09-17T09:39:45.845Z,12.88
2022-09-17T09:40:53.731Z,12.96
2022-09-17T09:42:05.640Z,13.24
2022-09-17T09:44:02.842Z,13.33
2022-09-17T09:45:14.305Z,13.43
2022-09-17T09:46:18.983Z,13.52
2022-09-17T09:48:19.383Z,13.63
2022-09-17T09:49:36.162Z,13.76
2022-09-17T09:51:07.431Z,13.87
2022-09-17T09:52:32.647Z,13.87
2022-09-17T09:53:58.785Z,13.69
2022-09-17T09:55:02.952Z,13.73
2022-09-17T09:56:58.702Z,13.73
2022-09-17T09:58:10.156Z,13.77
2022-09-17T09:59:13.242Z,13.88
2022-09-17T10:00:31.249Z,13.98
2022-09-17T10:01:36.399Z,13.83
2022-09-17T10:02:38.705Z,13.67
2022-09-17T10:03:42.179Z,13.51
2022-09-17T10:04:43.799Z,13.52
2022-09-17T10:05:59.330Z,13.58
2022-09-17T10:07:05.788Z,13.45
2022-09-17T10:08:14.899Z,13.26
2022-09-17T10:09:21.115Z,13.22
2022-09-17T10:10:22.936Z,13.32
2022-09-17T10:11:29.830Z,13.33
2022-09-17T10:12:31.347Z,13.38
2022-09-17T10:13:35.749Z,13.55
2022-09-17T10:14:41.784Z,13.61
2022-09-17T10:15:43.354Z,13.87
2022-09-17T10:16:45.379Z,14.09
2022-09-17T10:17:47.256Z,14.09
2022-09-17T10:18:50.797Z,13.97
2022-09-17T10:20:08.808Z,14.15
2022-09-17T10:21:31.452Z,14.42
2022-09-17T10:22:35.483Z,14.89
2022-09-17T10:23:43.308Z,15.15
2022-09-17T10:24:45.358Z,15.38
2022-09-17T10:25:47.613Z,15.61
2022-09-17T10:26:50.662Z,16.03
2022-09-17T10:27:52.334Z,16.66
2022-09-17T10:28:57.053Z,17.58
2022-09-17T10:30:13.810Z,18.42
2022-09-17T10:31:15.682Z,19.24
2022-09-17T10:32:19.592Z,19.82
2022-09-17T10:33:29.109Z,19.39
2022-09-17T10:34:31.592Z,20.64
2022-09-17T10:35:33.873Z,20.95
2022-09-17T10:36:38.144Z,21.54
2022-09-17T10:37:50.897Z,22.30
2022-09-17T10:38:52.496Z,22.28
2022-09-17T10:39:54.185Z,22.71
2022-09-17T10:41:10.861Z,22.53
2022-09-17T10:42:17.368Z,22.01
2022-09-17T10:43:22.820Z,21.13
2022-09-17T10:44:27.597Z,21.16
2022-09-17T10:45:31.481Z,21.45
2022-09-17T10:46:34.122Z,21.38
2022-09-17T10:47:43.813Z,19.98
2022-09-17T10:48:57.262Z,19.04
2022-09-17T10:50:18.032Z,17.58
2022-09-17T10:51:23.342Z,16.82
2022-09-17T10:52:26.735Z,16.24
2022-09-17T10:53:28.753Z,16.24
2022-09-17T10:54:57.719Z,16.35
2022-09-17T10:56:12.304Z,16.58
2022-09-17T10:57:27.155Z,16.65
2022-09-17T10:58:42.465Z,16.79
2022-09-17T11:00:02.165Z,17.23
2022-09-17T11:01:28.412Z,18.26
2022-09-17T11:02:56.366Z,19.18
2022-09-17T11:04:06.646Z,21.05
2022-09-17T11:05:44.009Z,22.42
2022-09-17T11:06:45.442Z,22.50
2022-09-17T11:08:08.602Z,22.59
2022-09-17T11:09:31.186Z,23.17
2022-09-17T11:10:41.940Z,23.42
2022-09-17T11:11:58.645Z,22.77
2022-09-17T11:13:02.793Z,21.67
2022-09-17T11:14:41.472Z,20.42
2022-09-17T11:15:56.879Z,19.24
2022-09-17T11:17:08.009Z,18.79
2022-09-17T11:18:09.509Z,18.51
2022-09-17T11:19:22.802Z,18.79
2022-09-17T11:20:46.016Z,18.46
2022-09-17T11:22:05.134Z,17.35
2022-09-17T11:23:12.645Z,18.53
2022-09-17T11:24:35.629Z,18.08
2022-09-17T11:25:43.219Z,17.86
2022-09-17T11:27:08.370Z,17.18
2022-09-17T11:28:10.153Z,16.76
2022-09-17T11:29:59.554Z,16.84
2022-09-17T11:31:10.132Z,16.62
2022-09-17T11:32:35.548Z,16.97
2022-09-17T11:33:55.317Z,16.57
2022-09-17T11:35:30.061Z,16.72
2022-09-17T11:36:42.690Z,16.38
2022-09-17T11:37:55.559Z,16.38
2022-09-17T11:39:12.205Z,16.01
2022-09-17T11:40:22.163Z,15.79
2022-09-17T11:41:29.482Z,15.86
2022-09-17T11:42:38.498Z,15.73
2022-09-17T11:43:47.232Z,15.41
2022-09-17T11:44:57.779Z,15.92
2022-09-17T11:46:19.977Z,15.90
2022-09-17T11:47:34.489Z,15.93
2022-09-17T11:48:52.423Z,16.06
2022-09-17T11:50:00.030Z,16.39
2022-09-17T11:51:31.715Z,16.29
2022-09-17T11:52:43.929Z,16.62
2022-09-17T11:54:08.816Z,17.54
2022-09-17T11:55:33.552Z,17.21
2022-09-17T11:56:42.014Z,17.30
2022-09-17T11:57:44.666Z,16.96
2022-09-17T11:59:09.185Z,17.35
2022-09-17T12:00:18.225Z,17.10
2022-09-17T12:01:51.915Z,16.27
2022-09-17T12:03:00.285Z,15.24
2022-09-17T12:04:10.096Z,15.08
2022-09-17T12:05:19.385Z,14.87
2022-09-17T12:06:30.815Z,14.11
2022-09-17T12:07:48.368Z,13.90
2022-09-17T12:09:04.779Z,13.77
2022-09-17T12:10:15.775Z,13.62
2022-09-17T12:11:23.253Z,13.16
2022-09-17T12:12:48.406Z,12.84
2022-09-17T12:13:53.040Z,12.66
2022-09-17T12:15:03.852Z,12.55
2022-09-17T12:16:36.323Z,12.60
2022-09-17T12:17:44.614Z,12.29
2022-09-17T12:19:11.378Z,12.21
2022-09-17T12:20:36.310Z,11.80
2022-09-17T12:21:39.707Z,11.84
2022-09-17T12:22:44.632Z,11.16
2022-09-17T12:23:55.713Z,11.58
2022-09-17T12:24:59.326Z,11.86
2022-09-17T12:26:15.822Z,12.26
2022-09-17T12:27:26.591Z,12.75
2022-09-17T12:28:43.709Z,12.25
2022-09-17T12:29:57.066Z,12.18
2022-09-17T12:31:14.508Z,11.89
2022-09-17T12:32:34.265Z,11.84
2022-09-17T12:33:46.454Z,11.59
2022-09-17T12:34:58.358Z,11.57
2022-09-17T12:36:27.630Z,11.95
2022-09-17T12:38:08.503Z,11.63
2022-09-17T12:39:23.350Z,11.66
2022-09-17T12:40:42.699Z,11.36
2022-09-17T12:41:57.071Z,12.23
2022-09-17T12:43:07.697Z,12.29
2022-09-17T12:44:29.040Z,12.80
2022-09-17T12:45:39.252Z,13.00
2022-09-17T12:46:59.631Z,13.26
2022-09-17T12:48:19.855Z,14.42
2022-09-17T12:49:29.165Z,15.44
2022-09-17T12:50:45.540Z,16.03
2022-09-17T12:51:47.271Z,16.02
2022-09-17T12:53:24.666Z,17.00
2022-09-17T12:54:47.416Z,18.07
2022-09-17T12:56:00.920Z,18.88
2022-09-17T12:57:05.108Z,18.97
2022-09-17T12:58:33.903Z,18.47
2022-09-17T12:59:43.505Z,17.68
2022-09-17T13:00:52.986Z,17.17
2022-09-17T13:02:12.830Z,17.15
2022-09-17T13:03:27.802Z,16.90
2022-09-17T13:04:49.931Z,16.84
2022-09-17T13:06:14.849Z,16.35
2022-09-17T13:07:39.611Z,16.30
2022-09-17T13:09:18.714Z,16.66
2022-09-17T13:10:36.574Z,16.53
2022-09-17T13:12:16.807Z,16.94
2022-09-17T13:13:27.363Z,17.27
2022-09-17T13:14:41.061Z,17.45
2022-09-17T13:16:05.030Z,17.79
2022-09-17T13:17:39.737Z,18.03
2022-09-17T13:19:14.963Z,18.35
2022-09-17T13:20:35.000Z,18.84
2022-09-17T13:21:49.846Z,19.41
2022-09-17T13:22:54.366Z,20.08
2022-09-17T13:23:56.304Z,19.94
2022-09-17T13:25:08.484Z,20.31
2022-09-17T13:26:13.329Z,20.48
2022-09-17T13:27:26.621Z,20.13
2022-09-17T13:28:47.882Z,19.47
2022-09-17T13:29:57.621Z,19.93
2022-09-17T13:31:01.492Z,20.58
2022-09-17T13:32:03.200Z,20.71
2022-09-17T13:33:04.854Z,20.13
2022-09-17T13:34:18.942Z,19.97
2022-09-17T13:35:20.634Z,20.52
2022-09-17T13:36:43.994Z,21.40
2022-09-17T13:37:48.901Z,21.60
2022-09-17T13:38:50.577Z,21.68
2022-09-17T13:39:52.653Z,22.83
2022-09-17T13:41:18.426Z,23.21
2022-09-17T13:42:27.854Z,22.53
2022-09-17T13:43:29.885Z,22.02
2022-09-17T13:44:39.707Z,21.74
2022-09-17T13:45:59.529Z,22.02
2022-09-17T13:47:22.689Z,20.70
2022-09-17T13:48:28.773Z,19.91
2022-09-17T13:49:32.863Z,19.15
2022-09-17T13:50:40.383Z,19.55
2022-09-17T13:51:45.560Z,19.56
2022-09-17T13:52:50.488Z,19.42
2022-09-17T13:53:54.769Z,20.06
2022-09-17T13:54:56.894Z,18.96
2022-09-17T13:56:04.494Z,18.91
2022-09-17T13:57:10.303Z,19.47
2022-09-17T13:58:35.763Z,19.37
2022-09-17T13:59:38.303Z,19.12
2022-09-17T14:00:56.758Z,18.95
2022-09-17T14:02:18.580Z,18.53
2022-09-17T14:03:29.916Z,18.32
2022-09-17T14:04:40.468Z,17.59
2022-09-17T14:05:42.055Z,17.15
2022-09-17T14:06:51.433Z,17.25
2022-09-17T14:08:11.920Z,16.53
2022-09-17T14:09:38.630Z,16.07
2022-09-17T14:10:43.311Z,16.14
2022-09-17T14:11:44.862Z,16.18
2022-09-17T14:12:56.252Z,16.51
2022-09-17T14:14:04.613Z,16.67
2022-09-17T14:15:41.471Z,16.99
2022-09-17T14:16:43.066Z,16.97
2022-09-17T14:17:52.515Z,16.35
2022-09-17T14:19:32.929Z,16.81
2022-09-17T14:20:34.625Z,16.70
2022-09-17T14:21:36.179Z,16.58
2022-09-17T14:22:37.720Z,16.64
2022-09-17T14:23:44.943Z,16.65
2022-09-17T14:24:52.335Z,16.89
2022-09-17T14:25:55.934Z,16.27
2022-09-17T14:27:03.603Z,16.94
2022-09-17T14:28:18.330Z,16.43
2022-09-17T14:29:43.069Z,16.69
2022-09-17T14:30:44.871Z,16.48
2022-09-17T14:31:46.566Z,16.31
2022-09-17T14:32:59.289Z,16.39
2022-09-17T14:34:04.973Z,16.18
2022-09-17T14:35:37.430Z,16.16
2022-09-17T14:36:39.393Z,16.19
2022-09-17T14:37:43.865Z,16.43
2022-09-17T14:38:49.104Z,16.80
2022-09-17T14:39:52.079Z,17.19
2022-09-17T14:40:58.996Z,17.25
2022-09-17T14:42:01.717Z,17.28